createdAt,value
2018-06-12T00:01:47.325Z,98483.64
2018-06-12T00:04:50.519Z,98475.78
2018-06-12T00:07:53.636Z,98482.07
2018-06-12T00:10:56.965Z,98479.95
2018-06-12T00:14:00.077Z,98480.38
2018-06-12T00:17:03.395Z,98481.56
2018-06-12T00:20:06.441Z,98482.33
2018-06-12T00:23:09.696Z,98483.59
2018-06-12T00:26:12.900Z,98480.40
2018-06-12T00:29:16.010Z,98480.45
2018-06-12T00:32:19.075Z,98484.40
2018-06-12T00:35:22.144Z,98486.69
2018-06-12T00:38:25.284Z,98478.78
2018-06-12T00:41:29.266Z,98482.39
2018-06-12T00:44:32.330Z,98482.39
2018-06-12T00:47:35.409Z,98482.52
2018-06-12T00:50:38.505Z,98492.44
2018-06-12T00:53:41.747Z,98491.34
2018-06-12T00:57:02.088Z,98488.87
2018-06-12T01:00:05.296Z,98492.27
2018-06-12T01:03:08.372Z,98499.06
2018-06-12T01:06:12.382Z,98495.62
2018-06-12T01:09:15.690Z,98496.59
2018-06-12T01:12:18.731Z,98487.12
2018-06-12T01:15:21.785Z,98497.92
2018-06-12T01:18:25.039Z,98492.87
2018-06-12T01:25:34.278Z,98512.16
2018-06-12T01:28:37.407Z,98512.89
2018-06-12T01:31:40.705Z,98512.42
2018-06-12T01:34:43.810Z,98517.18
2018-06-12T01:37:46.872Z,98516.59
2018-06-12T01:40:50.110Z,98515.09
2018-06-12T01:43:53.236Z,98523.08
2018-06-12T01:46:56.486Z,98525.13
2018-06-12T01:49:59.577Z,98524.41
2018-06-12T01:53:02.649Z,98522.48
2018-06-12T01:56:05.764Z,98526.56
2018-06-12T01:59:08.981Z,98526.39
2018-06-12T02:02:12.107Z,98529.62
2018-06-12T02:05:15.328Z,98527.62
2018-06-12T02:08:18.447Z,98514.66
2018-06-12T02:11:21.695Z,98526.81
2018-06-12T02:14:24.749Z,98525.76
2018-06-12T02:17:27.904Z,98519.30
2018-06-12T02:20:31.024Z,98526.52
2018-06-12T02:23:34.127Z,98530.05
2018-06-12T02:26:37.361Z,98528.40
2018-06-12T02:29:40.445Z,98532.98
2018-06-12T02:32:43.562Z,98532.26
2018-06-12T02:35:46.691Z,98533.09
2018-06-12T02:38:49.806Z,98526.36
2018-06-12T02:41:53.681Z,98525.00
2018-06-12T02:44:56.829Z,98521.09
2018-06-12T02:47:59.871Z,98519.02
2018-06-12T02:51:02.990Z,98523.98
2018-06-12T02:54:06.226Z,98525.30
2018-06-12T02:57:09.487Z,98526.11
2018-06-12T03:00:12.702Z,98530.06
2018-06-12T03:03:16.993Z,98522.90
2018-06-12T03:06:20.145Z,98530.70
2018-06-12T03:09:23.504Z,98533.43
2018-06-12T03:12:26.848Z,98533.43
2018-06-12T03:15:29.886Z,98532.52
2018-06-12T03:18:33.125Z,98530.27
2018-06-12T03:21:36.533Z,98530.47
2018-06-12T03:24:39.778Z,98539.94
2018-06-12T03:27:43.084Z,98540.03
2018-06-12T03:30:48.288Z,98531.44
2018-06-12T03:33:51.374Z,98531.64
2018-06-12T03:36:54.445Z,98533.16
2018-06-12T03:39:57.421Z,98519.91
2018-06-12T03:43:00.806Z,98523.94
2018-06-12T03:46:04.001Z,98519.38
2018-06-12T03:49:07.121Z,98522.20
2018-06-12T03:52:10.187Z,98524.13
2018-06-12T03:55:14.814Z,98521.19
2018-06-12T03:58:18.237Z,98520.70
2018-06-12T04:01:21.538Z,98524.03
2018-06-12T04:04:24.808Z,98524.84
2018-06-12T04:07:28.012Z,98527.37
2018-06-12T04:10:31.132Z,98534.05
2018-06-12T04:13:34.335Z,98531.51
2018-06-12T04:16:37.498Z,98538.39
2018-06-12T04:19:40.578Z,98536.78
2018-06-12T04:22:43.669Z,98540.33
2018-06-12T04:25:46.756Z,98537.09
2018-06-12T04:28:49.907Z,98537.20
2018-06-12T04:31:53.235Z,98535.88
2018-06-12T04:34:56.392Z,98534.68
2018-06-12T04:37:59.607Z,98533.00
2018-06-12T04:41:02.639Z,98540.41
2018-06-12T04:44:05.760Z,98541.09
2018-06-12T04:47:08.781Z,98544.22
2018-06-12T04:50:11.858Z,98552.21
2018-06-12T04:53:14.948Z,98559.93
2018-06-12T04:56:19.145Z,98557.09
2018-06-12T04:59:22.381Z,98554.37
2018-06-12T05:02:25.506Z,98551.83
2018-06-12T05:05:28.709Z,98550.72
2018-06-12T05:08:31.774Z,98551.61
2018-06-12T05:11:35.987Z,98557.18
2018-06-12T05:14:39.159Z,98560.41
2018-06-12T05:17:42.265Z,98564.16
2018-06-12T05:20:45.378Z,98561.52
2018-06-12T05:23:48.610Z,98563.25
2018-06-12T05:26:51.753Z,98560.42
2018-06-12T05:29:55.083Z,98566.29
2018-06-12T05:32:58.440Z,98566.09
2018-06-12T05:36:02.510Z,98565.69
2018-06-12T05:39:09.941Z,98565.79
2018-06-12T05:42:12.949Z,98576.61
2018-06-12T05:45:16.224Z,98575.20
2018-06-12T05:48:19.539Z,98580.76
2018-06-12T05:51:27.992Z,98578.63
2018-06-12T05:54:31.505Z,98585.91
2018-06-12T05:57:35.065Z,98588.08
2018-06-12T06:00:38.504Z,98591.52
2018-06-12T06:03:41.909Z,98587.23
2018-06-12T06:06:45.548Z,98592.52
2018-06-12T06:09:48.830Z,98601.23
2018-06-12T06:12:52.171Z,98602.67
2018-06-12T06:15:55.481Z,98603.88
2018-06-12T06:18:58.954Z,98606.43
2018-06-12T06:22:02.803Z,98603.79
2018-06-12T06:25:06.400Z,98613.33
2018-06-12T06:28:09.732Z,98603.39
2018-06-12T06:31:12.879Z,98604.47
2018-06-12T06:34:16.073Z,98600.52
2018-06-12T06:37:19.359Z,98604.66
2018-06-12T06:40:22.816Z,98613.29
2018-06-12T06:43:26.159Z,98610.12
2018-06-12T06:46:29.146Z,98608.89
2018-06-12T06:49:32.187Z,98607.86
2018-06-12T06:52:36.097Z,98607.25
2018-06-12T06:55:39.388Z,98603.27
2018-06-12T06:58:42.622Z,98607.83
2018-06-12T07:01:45.704Z,98609.24
2018-06-12T07:04:48.798Z,98598.02
2018-06-12T07:07:51.797Z,98595.46
2018-06-12T07:10:54.850Z,98603.80
2018-06-12T07:13:57.978Z,98603.11
2018-06-12T07:17:01.044Z,98598.81
2018-06-12T07:20:04.321Z,98594.09
2018-06-12T07:23:07.378Z,98596.36
2018-06-12T07:26:10.517Z,98590.09
2018-06-12T07:29:13.798Z,98595.40
2018-06-12T07:32:17.983Z,98588.06
2018-06-12T07:35:21.008Z,98592.52
2018-06-12T07:38:24.211Z,98586.78
2018-06-12T07:41:28.399Z,98593.84
2018-06-12T07:44:31.518Z,98593.14
2018-06-12T07:47:34.744Z,98593.28
2018-06-12T07:50:38.019Z,98591.67
2018-06-12T07:53:41.387Z,98590.61
2018-06-12T07:56:44.456Z,98593.50
2018-06-12T07:59:47.898Z,98590.67
2018-06-12T08:02:51.239Z,98600.14
2018-06-12T08:05:55.430Z,98608.86
2018-06-12T08:08:58.709Z,98604.57
2018-06-12T08:12:02.082Z,98603.72
2018-06-12T08:15:05.432Z,98605.11
2018-06-12T08:18:08.659Z,98598.43
2018-06-12T08:21:11.710Z,98605.50
2018-06-12T08:24:14.746Z,98602.95
2018-06-12T08:27:17.813Z,98604.56
2018-06-12T08:30:21.138Z,98605.76
2018-06-12T08:33:24.260Z,98603.04
2018-06-12T08:36:27.326Z,98603.28
2018-06-12T08:39:30.444Z,98609.14
2018-06-12T08:42:33.550Z,98604.31
2018-06-12T08:45:36.588Z,98606.35
2018-06-12T08:48:42.754Z,98607.45
2018-06-12T08:51:45.974Z,98609.62
2018-06-12T08:54:49.070Z,98611.38
2018-06-12T08:57:52.197Z,98618.69
2018-06-12T09:00:55.332Z,98620.05
2018-06-12T09:03:58.615Z,98616.64
2018-06-12T09:07:01.940Z,98613.56
2018-06-12T09:10:05.121Z,98619.33
2018-06-12T09:13:08.273Z,98619.96
2018-06-12T09:16:11.346Z,98619.63
2018-06-12T09:19:14.426Z,98614.65
2018-06-12T09:22:17.579Z,98616.89
2018-06-12T09:25:20.616Z,98619.36
2018-06-12T09:28:24.746Z,98624.00
2018-06-12T09:31:27.855Z,98626.95
2018-06-12T09:34:30.968Z,98634.34
2018-06-12T09:37:34.075Z,98640.22
2018-06-12T09:40:37.227Z,98639.48
2018-06-12T09:43:40.370Z,98641.04
2018-06-12T09:46:43.646Z,98648.34
2018-06-12T09:49:47.059Z,98650.11
2018-06-12T09:52:50.358Z,98651.87
2018-06-12T09:55:53.656Z,98657.64
2018-06-12T09:58:57.007Z,98663.66
2018-06-12T10:02:00.373Z,98664.47
2018-06-12T10:05:03.765Z,98668.89
2018-06-12T10:08:07.014Z,98671.56
2018-06-12T10:11:10.369Z,98669.36
2018-06-12T10:14:13.466Z,98673.00
2018-06-12T10:17:16.773Z,98666.09
2018-06-12T10:20:20.290Z,98673.48
2018-06-12T10:23:23.526Z,98675.92
2018-06-12T10:26:26.705Z,98681.56
2018-06-12T10:29:29.854Z,98683.21
2018-06-12T10:32:33.074Z,98688.45
2018-06-12T10:35:36.388Z,98687.95
2018-06-12T10:38:39.729Z,98687.13
2018-06-12T10:41:42.913Z,98689.11
2018-06-12T10:44:46.243Z,98683.65
2018-06-12T10:47:49.558Z,98679.00
2018-06-12T10:50:53.124Z,98683.64
2018-06-12T10:53:56.790Z,98684.81
2018-06-12T10:57:00.107Z,98679.20
2018-06-12T11:00:03.647Z,98680.08
2018-06-12T11:03:07.190Z,98678.94
2018-06-12T11:06:11.593Z,98674.36
2018-06-12T11:09:14.824Z,98668.52
2018-06-12T11:12:18.059Z,98660.58
2018-06-12T11:15:21.782Z,98657.11
2018-06-12T11:18:24.827Z,98648.99
2018-06-12T11:21:27.771Z,98651.49
2018-06-12T11:24:30.806Z,98647.97
2018-06-12T11:27:33.784Z,98635.98
2018-06-12T11:30:36.851Z,98623.83
2018-06-12T11:33:39.900Z,98628.69
2018-06-12T11:36:43.026Z,98621.94
2018-06-12T11:39:45.934Z,98621.36
2018-06-12T11:42:48.921Z,98622.57
2018-06-12T11:45:52.797Z,98622.70
2018-06-12T11:48:55.852Z,98627.05
2018-06-12T11:51:58.833Z,98624.00
2018-06-12T11:55:01.847Z,98626.27
2018-06-12T11:58:04.830Z,98617.78
2018-06-12T12:01:08.008Z,98626.05
2018-06-12T12:04:11.138Z,98635.48
2018-06-12T12:07:14.187Z,98636.81
2018-06-12T12:10:17.178Z,98634.28
2018-06-12T12:13:20.152Z,98634.75
2018-06-12T12:16:23.249Z,98637.97
2018-06-12T12:19:26.345Z,98637.80
2018-06-12T12:22:29.306Z,98634.01
2018-06-12T12:25:32.328Z,98629.78
2018-06-12T12:28:35.596Z,98621.52
2018-06-12T12:31:38.894Z,98627.20
2018-06-12T12:34:41.949Z,98623.89
2018-06-12T12:37:44.837Z,98623.59
2018-06-12T12:40:47.945Z,98619.53
2018-06-12T12:43:50.871Z,98628.27
2018-06-12T12:46:53.862Z,98627.44
2018-06-12T12:49:56.838Z,98617.03
2018-06-12T12:52:59.994Z,98619.33
2018-06-12T12:56:02.980Z,98612.85
2018-06-12T12:59:06.030Z,98615.50
2018-06-12T13:02:10.020Z,98624.46
2018-06-12T13:05:14.052Z,98618.34
2018-06-12T13:08:17.118Z,98617.50
2018-06-12T13:11:20.062Z,98617.22
2018-06-12T13:14:23.153Z,98617.11
2018-06-12T13:17:26.221Z,98613.11
2018-06-12T13:20:29.191Z,98605.02
2018-06-12T13:23:32.442Z,98608.16
2018-06-12T13:26:35.632Z,98606.23
2018-06-12T13:29:38.830Z,98602.02
2018-06-12T13:32:41.878Z,98608.88
2018-06-12T13:35:44.894Z,98602.53
2018-06-12T13:38:47.951Z,98595.60
2018-06-12T13:41:51.051Z,98593.78
2018-06-12T13:44:54.293Z,98596.95
2018-06-12T13:47:57.344Z,98602.08
2018-06-12T13:51:00.473Z,98604.06
2018-06-12T13:54:03.496Z,98604.25
2018-06-12T13:57:06.617Z,98617.06
2018-06-12T14:00:09.674Z,98608.88
2018-06-12T14:03:12.758Z,98608.98
2018-06-12T14:06:15.896Z,98613.95
2018-06-12T14:09:18.955Z,98613.92
2018-06-12T14:12:21.977Z,98611.88
2018-06-12T14:15:25.019Z,98610.28
2018-06-12T14:18:28.029Z,98607.83
2018-06-12T14:21:31.070Z,98605.81
2018-06-12T14:24:34.147Z,98606.16
2018-06-12T14:27:37.202Z,98606.80
2018-06-12T14:30:40.154Z,98612.83
2018-06-12T14:33:43.254Z,98613.37
2018-06-12T14:36:46.400Z,98607.73
2018-06-12T14:39:49.493Z,98608.25
2018-06-12T14:42:52.766Z,98604.56
2018-06-12T14:45:55.744Z,98600.70
2018-06-12T14:48:58.748Z,98606.08
2018-06-12T14:52:01.693Z,98603.70
2018-06-12T14:55:04.698Z,98606.19
2018-06-12T14:58:07.710Z,98602.28
2018-06-12T15:01:10.656Z,98601.80
2018-06-12T15:04:13.663Z,98601.03
2018-06-12T15:07:16.637Z,98600.00
2018-06-12T15:10:19.665Z,98601.08
2018-06-12T15:13:22.664Z,98592.97
2018-06-12T15:16:25.638Z,98594.45
2018-06-12T15:19:29.567Z,98589.61
2018-06-12T15:22:32.535Z,98591.27
2018-06-12T15:25:35.754Z,98592.16
2018-06-12T15:28:38.746Z,98591.53
2018-06-12T15:31:42.068Z,98595.95
2018-06-12T15:34:45.078Z,98597.20
2018-06-12T15:37:48.077Z,98595.58
2018-06-12T15:40:51.109Z,98587.56
2018-06-12T15:43:54.121Z,98586.03
2018-06-12T15:46:57.167Z,98578.40
2018-06-12T15:50:00.188Z,98573.70
2018-06-12T15:53:03.104Z,98575.59
2018-06-12T15:56:06.236Z,98572.90
2018-06-12T15:59:09.231Z,98570.34
2018-06-12T16:02:12.170Z,98573.73
2018-06-12T16:05:15.238Z,98578.83
2018-06-12T16:08:19.284Z,98585.84
2018-06-12T16:11:22.523Z,98585.08
2018-06-12T16:14:25.544Z,98582.34
2018-06-12T16:17:28.445Z,98575.50
2018-06-12T16:20:31.499Z,98573.94
2018-06-12T16:23:34.503Z,98571.28
2018-06-12T16:26:37.436Z,98569.30
2018-06-12T16:29:40.512Z,98567.87
2018-06-12T16:32:43.504Z,98576.69
2018-06-12T16:35:46.606Z,98576.63
2018-06-12T16:38:49.920Z,98577.98
2018-06-12T16:41:52.931Z,98581.36
2018-06-12T16:44:55.934Z,98573.02
2018-06-12T16:47:59.015Z,98567.02
2018-06-12T16:51:02.018Z,98562.08
2018-06-12T16:54:05.644Z,98564.84
2018-06-12T16:57:08.678Z,98570.27
2018-06-12T17:00:11.677Z,98573.30
2018-06-12T17:03:14.644Z,98570.05
2018-06-12T17:06:17.613Z,98569.38
2018-06-12T17:09:21.140Z,98565.04
2018-06-12T17:12:24.145Z,98565.27
2018-06-12T17:15:27.280Z,98572.45
2018-06-12T17:18:30.289Z,98568.47
2018-06-12T17:21:33.325Z,98569.13
2018-06-12T17:24:36.387Z,98573.81
2018-06-12T17:27:39.406Z,98570.76
2018-06-12T17:30:42.437Z,98569.83
2018-06-12T17:33:45.416Z,98571.86
2018-06-12T17:36:48.495Z,98566.89
2018-06-12T17:39:51.798Z,98569.42
2018-06-12T17:42:54.832Z,98579.59
2018-06-12T17:45:57.847Z,98580.20
2018-06-12T17:49:00.768Z,98585.11
2018-06-12T17:52:03.830Z,98584.20
2018-06-12T17:55:06.805Z,98594.37
2018-06-12T17:58:09.973Z,98595.11
2018-06-12T18:01:13.051Z,98595.78
2018-06-12T18:04:16.092Z,98604.16
2018-06-12T18:07:19.111Z,98602.40
2018-06-12T18:10:22.261Z,98605.70
2018-06-12T18:13:25.244Z,98613.55
2018-06-12T18:16:28.241Z,98608.40
2018-06-12T18:19:31.155Z,98607.38
2018-06-12T18:22:34.189Z,98609.36
2018-06-12T18:25:37.217Z,98612.29
2018-06-12T18:28:40.234Z,98613.61
2018-06-12T18:31:43.292Z,98615.89
2018-06-12T18:34:46.228Z,98610.53
2018-06-12T18:37:49.362Z,98614.72
2018-06-12T18:40:53.467Z,98615.01
2018-06-12T18:43:56.915Z,98620.80
2018-06-12T18:47:00.061Z,98623.00
2018-06-12T18:50:03.095Z,98617.56
2018-06-12T18:53:06.135Z,98623.51
2018-06-12T18:56:09.087Z,98628.12
2018-06-12T18:59:12.417Z,98626.51
2018-06-12T19:02:16.348Z,98629.52
2018-06-12T19:05:19.313Z,98627.09
2018-06-12T19:08:22.388Z,98631.47
2018-06-12T19:11:25.429Z,98643.36
2018-06-12T19:14:28.429Z,98636.67
2018-06-12T19:17:31.489Z,98644.08
2018-06-12T19:20:34.458Z,98642.09
2018-06-12T19:23:37.506Z,98650.02
2018-06-12T19:26:40.506Z,98661.17
2018-06-12T19:29:44.485Z,98663.73
2018-06-12T19:32:47.653Z,98665.48
2018-06-12T19:35:50.767Z,98663.97
2018-06-12T19:38:53.755Z,98675.89
2018-06-12T19:41:56.729Z,98680.80
2018-06-12T19:45:00.689Z,98677.31
2018-06-12T19:48:03.891Z,98686.03
2018-06-12T19:51:07.010Z,98684.86
2018-06-12T19:54:09.953Z,98691.84
2018-06-12T19:57:12.993Z,98698.86
2018-06-12T20:00:16.691Z,98702.98
2018-06-12T20:03:21.665Z,98706.64
2018-06-12T20:06:24.640Z,98714.77
2018-06-12T20:09:27.676Z,98720.16
2018-06-12T20:12:30.594Z,98717.34
2018-06-12T20:15:33.818Z,98710.19
2018-06-12T20:18:36.783Z,98729.70
2018-06-12T20:21:39.780Z,98720.17
2018-06-12T20:24:43.851Z,98719.39
2018-06-12T20:27:46.922Z,98720.22
2018-06-12T20:30:49.901Z,98723.57
2018-06-12T20:33:53.222Z,98725.12
2018-06-12T20:36:56.288Z,98720.68
2018-06-12T20:39:59.416Z,98710.97
2018-06-12T20:43:02.472Z,98719.08
2018-06-12T20:46:05.667Z,98715.45
2018-06-12T20:49:08.753Z,98712.64
2018-06-12T20:52:11.974Z,98711.09
2018-06-12T20:55:15.043Z,98718.39
2018-06-12T20:58:18.110Z,98714.23
2018-06-12T21:01:21.172Z,98719.80
2018-06-12T21:04:24.138Z,98727.51
2018-06-12T21:07:27.160Z,98727.81
2018-06-12T21:10:30.215Z,98732.98
2018-06-12T21:13:33.192Z,98738.14
2018-06-12T21:16:36.278Z,98737.23
2018-06-12T21:19:39.379Z,98730.05
2018-06-12T21:22:42.501Z,98740.36
2018-06-12T21:25:45.519Z,98748.64
2018-06-12T21:28:48.593Z,98755.40
2018-06-12T21:31:51.600Z,98755.80
2018-06-12T21:34:54.575Z,98760.75
2018-06-12T21:37:57.557Z,98766.33
2018-06-12T21:41:00.579Z,98762.39
2018-06-12T21:44:03.530Z,98765.00
2018-06-12T21:47:06.596Z,98769.04
2018-06-12T21:50:09.630Z,98764.06
2018-06-12T21:53:12.608Z,98767.00
2018-06-12T21:56:16.299Z,98768.27
2018-06-12T21:59:19.373Z,98767.25
2018-06-12T22:02:22.449Z,98768.80
2018-06-12T22:05:25.594Z,98766.16
2018-06-12T22:08:28.691Z,98770.72
2018-06-12T22:11:31.843Z,98780.02
2018-06-12T22:14:34.952Z,98783.16
2018-06-12T22:17:50.022Z,98782.75
2018-06-12T22:20:53.162Z,98782.95
2018-06-12T22:23:56.266Z,98784.45
2018-06-12T22:26:59.336Z,98785.45
2018-06-12T22:30:02.357Z,98783.33
2018-06-12T22:33:05.468Z,98778.78
2018-06-12T22:36:09.387Z,98783.23
2018-06-12T22:39:12.413Z,98790.31
2018-06-12T22:42:15.518Z,98796.19
2018-06-12T22:45:18.482Z,98788.41
2018-06-12T22:48:21.464Z,98787.11
2018-06-12T22:51:24.509Z,98781.14
2018-06-12T22:54:27.494Z,98780.13
2018-06-12T22:57:30.549Z,98784.69
2018-06-12T23:00:33.580Z,98779.22
2018-06-12T23:03:36.603Z,98776.98
2018-06-12T23:06:39.622Z,98774.55
2018-06-12T23:09:42.783Z,98771.41
2018-06-12T23:12:45.908Z,98778.50
2018-06-12T23:15:48.864Z,98774.85
2018-06-12T23:18:51.875Z,98785.88
2018-06-12T23:22:00.323Z,98785.36
2018-06-12T23:25:03.436Z,98789.29
2018-06-12T23:28:06.480Z,98794.55
2018-06-12T23:31:09.431Z,98789.80
2018-06-12T23:34:12.461Z,98790.30
2018-06-12T23:37:15.411Z,98794.75
2018-06-12T23:40:18.456Z,98798.21
2018-06-12T23:43:21.518Z,98794.75
2018-06-12T23:46:24.480Z,98794.03
2018-06-12T23:49:27.460Z,98798.37
2018-06-12T23:52:30.454Z,98799.29
2018-06-12T23:55:33.384Z,98797.69
2018-06-12T23:58:36.400Z,98791.11
